Weather observations for the past three days for
Kennett - Kennett Memorial Airport
Imperial (Metric)
Date Time (cdt) Wind (mph) Vis. (mi.) Weather Sky Cond. Temperature (ºF) Relative Humidity Wind Chill (°F) Heat Index (°F) Pressure Precipitation (in)
Air Dwpt 6 hour altimeter (in) sea level (mb) 1 hr 3 hr 6 hr
Max. Min.
04 08:15 SW 14 10.00 Fair CLR 66.2 55.4 68% 29.89 0.0
04 07:55 SW 12 G 17 10.00 Fair CLR 64.4 57.2 78% 29.88 0.0
04 07:35 SW 12 10.00 Fair CLR 62.6 57.2 83% 29.89 0.0
04 07:15 SW 9 G 16 10.00 Fair CLR 60.8 57.2 88% 29.89 0.0
04 06:55 SW 10 10.00 Fair CLR 60.8 57.2 88% 29.88 0.0
04 06:35 SW 10 10.00 Fair CLR 59 55.4 88% 29.88 0.0
04 06:15 SW 10 10.00 Fair CLR 60.8 55.4 83% 29.87 0.0
04 05:55 SW 10 10.00 Fair CLR 60.8 55.4 83% 29.86 0.0
04 05:35 SW 12 10.00 Fair CLR 60.8 53.6 77% 29.86 0.0
04 05:15 SW 13 10.00 Fair CLR 60.8 53.6 77% 29.86 0.0
04 04:55 SW 13 10.00 Fair CLR 60.8 51.8 72% 29.87 0.0
04 04:35 SW 15 10.00 Fair CLR 62.6 51.8 68% 29.86 0.0
04 04:15 SW 14 G 20 10.00 Fair CLR 62.6 51.8 68% 29.87 0.0
04 03:55 SW 14 10.00 Fair CLR 62.6 50 64% 29.86 0.0
04 03:35 SW 16 G 22 10.00 Fair CLR 62.6 50 64% 29.87 0.0
04 03:15 SW 14 G 20 10.00 Fair CLR 62.6 50 64% 29.87 0.0
04 02:55 SW 15 G 22 10.00 Fair CLR 64.4 50 60% 29.87 0.0
04 02:35 SW 14 G 21 10.00 Fair CLR 64.4 50 60% 29.88 0.0
04 02:15 SW 13 G 20 10.00 Fair CLR 64.4 50 60% 29.88 0.0
04 01:55 SW 13 10.00 Fair CLR 64.4 50 60% 29.89 0.0
04 01:35 SW 13 10.00 Fair CLR 64.4 50 60% 29.9 0.0
04 01:15 SW 13 10.00 Fair CLR 64.4 50 60% 29.91 0.0
04 00:55 SW 13 G 24 10.00 Fair CLR 64.4 50 60% 29.91 0.0
04 00:35 SW 15 10.00 Fair CLR 64.4 50 60% 29.92 0.0
04 00:15 SW 13 10.00 Fair CLR 64.4 50 60% 29.92 0.0
03 23:55 SW 12 10.00 Fair CLR 64.4 50 60% 29.92 0.0
03 23:35 SW 13 10.00 Fair CLR 64.4 50 60% 29.93 0.0
03 23:15 S 8 10.00 Fair CLR 64.4 50 60% 29.92 0.0
03 22:55 S 8 10.00 Fair CLR 64.4 50 60% 29.93 0.0
03 22:35 S 7 10.00 Fair CLR 64.4 50 60% 29.93 0.0
03 22:15 S 8 10.00 Fair CLR 64.4 50 60% 29.93 0.0
03 21:55 SW 8 10.00 Fair CLR 64.4 51.8 64% 29.94 0.0
03 21:35 S 8 10.00 Fair CLR 64.4 50 60% 29.93 0.0
03 21:15 S 8 10.00 Fair CLR 66.2 50 56% 29.93 0.0
03 20:55 S 9 10.00 Fair CLR 66.2 50 56% 29.93 0.0
03 20:35 S 8 10.00 Fair CLR 66.2 48.2 52% 29.92 0.0
03 20:15 S 8 10.00 Fair CLR 68 48.2 49% 29.92 0.0
03 19:55 SW 9 10.00 Fair CLR 68 46.4 46% 29.93 0.0
03 19:35 SW 10 G 16 10.00 Fair CLR 69.8 46.4 43% 29.93 0.0
03 19:15 S 14 10.00 Fair CLR 71.6 44.6 38% 29.93 0.0
03 18:55 SW 18 10.00 Fair CLR 73.4 44.6 36% 29.93 0.0
03 18:35 SW 17 10.00 Fair CLR 73.4 42.8 33% 29.94 0.0
03 18:15 SW 17 G 23 10.00 Fair CLR 73.4 42.8 33% 29.95 0.0
03 17:55 SW 16 10.00 Fair CLR 75.2 42.8 31% 77 29.96 0.0
03 17:35 SW 16 10.00 Fair CLR 75.2 41 29% 77 29.96 0.0
03 17:15 SW 14 G 23 10.00 Fair CLR 75.2 39.2 27% 77 29.97 0.0
03 16:55 SW 17 G 23 10.00 Fair CLR 75.2 39.2 27% 77 29.97 0.0
03 16:35 SW 14 G 24 10.00 Fair CLR 75.2 37.4 25% 77 29.98 0.0
03 16:15 SW 16 10.00 Fair CLR 75.2 37.4 25% 77 29.98 0.0
03 15:55 S 13 G 22 10.00 Fair CLR 75.2 37.4 25% 77 30 0.0
03 15:35 SW 18 G 26 10.00 Fair CLR 75.2 35.6 24% 76 30.01 0.0
03 15:15 SW 13 10.00 Fair CLR 75.2 39.2 27% 77 30.03 0.0
03 14:55 SW 12 G 21 10.00 Fair CLR 73.4 41 31% 30.04 0.0
03 14:35 SW 16 G 22 10.00 Fair CLR 73.4 39.2 29% 30.05 0.0
03 13:55 SW 15 G 24 10.00 Fair CLR 71.6 39.2 31% 30.07 0.0
03 13:35 SW 21 G 26 10.00 Fair and Breezy CLR 71.6 39.2 31% 30.09 0.0
03 13:15 SW 14 G 25 10.00 Fair CLR 71.6 39.2 31% 30.09 0.0
03 12:55 SW 17 G 25 10.00 Fair CLR 69.8 39.2 33% 30.1 0.0
03 12:35 SW 15 G 23 10.00 Fair CLR 69.8 39.2 33% 30.12 0.0
03 12:15 SW 13 G 22 10.00 Fair CLR 69.8 41 35% 30.13 0.0
03 11:55 S 12 G 23 10.00 Fair CLR 68 39.2 35% 30.13 0.0
03 11:35 S 13 G 20 10.00 Fair CLR 68 39.2 35% 30.14 0.0
03 11:15 SW 15 10.00 Fair CLR 66.2 39.2 37% 30.14 0.0
03 10:55 S 13 G 20 10.00 Fair CLR 66.2 41 40% 30.15 0.0
03 10:35 S 9 G 16 10.00 Fair CLR 64.4 41 43% 30.16 0.0
03 10:15 S 12 10.00 Fair CLR 64.4 41 43% 30.16 0.0
03 09:55 S 16 10.00 Fair CLR 60.8 37.4 42% 30.16 0.0
03 09:35 S 17 10.00 Fair CLR 60.8 41 48% 30.16 0.0
03 09:15 S 12 G 17 10.00 Fair CLR 59 42.8 55% 30.16 0.0
03 08:55 SW 13 10.00 Fair CLR 59 48.2 68% 30.16 0.0
03 08:35 S 13 10.00 Fair CLR 55.4 46.4 72% 30.16 0.0
03 08:15 S 8 10.00 Fair CLR 55.4 50 82% 30.16 0.0
03 07:55 S 6 10.00 Fair CLR 51.8 50 94% 30.16 0.0
03 07:35 S 5 10.00 Fair CLR 50 50 100% 49 30.16 0.0
03 07:15 SW 3 10.00 Fair CLR 48.2 48.2 100% 30.16 0.0
03 06:55 Calm 10.00 Fair CLR 44.6 44.6 100% 30.15 0.0
03 06:35 Calm 10.00 Fair CLR 44.6 44.6 100% 30.14 0.0
03 06:15 Calm 10.00 Fair CLR 44.6 44.6 100% 30.14 0.0
03 05:55 Calm 10.00 Fair CLR 42.8 42.8 100% 30.13 0.0
03 05:35 Calm 10.00 Fair CLR 42.8 42.8 100% 30.13 0.0
03 05:15 Calm 10.00 Fair CLR 42.8 42.8 100% 30.13 0.0
03 04:55 Calm 10.00 Fair CLR 42.8 42.8 100% 30.13 0.0
03 04:35 Calm 10.00 Fair CLR 44.6 44.6 100% 30.13 0.0
03 04:15 Calm 10.00 Fair CLR 44.6 44.6 100% 30.13 0.0
03 03:55 Calm 10.00 Fair CLR 44.6 44.6 100% 30.13 0.0
03 03:35 Calm 10.00 Fair CLR 44.6 44.6 100% 30.13 0.0
03 03:15 Calm 10.00 Fair CLR 46.4 44.6 93% 30.13 0.0
03 02:55 Calm 10.00 Fair CLR 46.4 46.4 100% 30.13 0.0
03 02:35 Calm 10.00 Fair CLR 46.4 46.4 100% 30.13 0.0
03 02:15 Calm 10.00 Fair CLR 46.4 46.4 100% 30.13 0.0
03 01:55 Calm 10.00 Fair CLR 46.4 46.4 100% 30.13 0.0
03 01:35 Calm 10.00 Fair CLR 46.4 46.4 100% 30.13 0.0
03 01:15 Calm 10.00 Fair CLR 46.4 46.4 100% 30.13 0.0
03 00:55 Calm 10.00 Fair CLR 46.4 46.4 100% 30.13 0.0
03 00:35 Calm 10.00 Fair CLR 48.2 46.4 94% 30.13 0.0
03 00:15 Calm 10.00 Fair CLR 48.2 44.6 87% 30.13 0.0
02 23:55 E 5 10.00 Fair CLR 50 41 71% 49 30.13 0.0
02 23:35 E 5 10.00 Fair CLR 50 41 71% 49 30.13 0.0
02 23:15 E 6 10.00 Fair CLR 51.8 41 67% 30.12 0.0
02 22:55 E 5 10.00 Fair CLR 51.8 39.2 62% 30.12 0.0
02 22:35 Vrbl 5 10.00 Fair CLR 53.6 39.2 58% 30.12 0.0
02 22:15 E 7 10.00 Fair CLR 53.6 39.2 58% 30.12 0.0
02 21:55 NE 8 10.00 Fair CLR 55.4 37.4 51% 30.11 0.0
02 21:35 NE 10 10.00 Fair CLR 55.4 37.4 51% 30.11 0.0
02 21:15 NE 8 10.00 Fair CLR 55.4 39.2 55% 30.1 0.0
02 20:55 NE 9 10.00 Fair CLR 57.2 37.4 48% 30.09 0.0
02 20:35 NE 12 10.00 Fair CLR 59 37.4 45% 30.09 0.0
02 20:15 NE 10 10.00 Fair CLR 59 37.4 45% 30.08 0.0
02 19:55 NE 9 10.00 Fair CLR 59 35.6 42% 30.07 0.0
02 19:35 NE 9 G 16 10.00 Fair CLR 60.8 35.6 39% 30.06 0.0
02 19:15 N 9 10.00 Fair CLR 62.6 33.8 34% 30.06 0.0
02 18:55 N 10 G 17 10.00 Fair CLR 64.4 33.8 32% 30.05 0.0
02 18:35 N 14 G 20 10.00 Fair CLR 66.2 32 28% 30.04 0.0
02 18:15 N 13 G 18 10.00 Fair CLR 66.2 32 28% 30.05 0.0
02 17:55 N 13 G 20 10.00 A Few Clouds FEW085 66.2 33.8 30% 30.04 0.0
02 17:35 N 13 G 22 10.00 A Few Clouds FEW085 66.2 32 28% 30.04 0.0
02 17:15 N 14 G 22 10.00 Mostly Cloudy BKN085 68 33.8 28% 30.04 0.0
02 16:55 N 10 G 16 10.00 Partly Cloudy SCT090 68 33.8 28% 30.03 0.0
02 16:35 NW 16 G 23 10.00 A Few Clouds FEW080 68 33.8 28% 30.03 0.0
02 16:15 N 13 G 24 10.00 Fair CLR 68 33.8 28% 30.03 0.0
02 15:55 NW 16 G 22 10.00 Fair CLR 69.8 33.8 27% 30.03 0.0
02 15:35 N 17 G 23 10.00 A Few Clouds FEW095 69.8 35.6 29% 30.03 0.0
02 15:15 NW 16 G 28 10.00 A Few Clouds FEW100 69.8 35.6 29% 30.04 0.0
02 14:55 N 13 G 24 10.00 A Few Clouds FEW075 69.8 35.6 29% 30.04 0.0
02 14:35 NW 14 G 23 10.00 Fair CLR 69.8 33.8 27% 30.04 0.0
02 14:15 NW 14 G 22 10.00 A Few Clouds FEW085 68 33.8 28% 30.04 0.0
02 13:55 NW 17 G 37 10.00 A Few Clouds FEW085 69.8 37.4 31% 30.04 0.0
02 13:35 NW 16 G 30 10.00 A Few Clouds FEW085 69.8 35.6 29% 30.04 0.0
02 13:15 W 15 G 24 10.00 Partly Cloudy SCT080 SCT090 68 33.8 28% 30.05 0.0
02 12:55 NW 18 G 25 10.00 Partly Cloudy SCT080 66.2 35.6 32% 30.05 0.0
02 12:35 W 15 G 21 10.00 A Few Clouds FEW075 68 37.4 33% 30.05 0.0
02 12:15 W 8 G 18 10.00 Fair CLR 68 35.6 30% 30.05 0.0
02 11:55 NW 12 G 18 10.00 Fair CLR 68 35.6 30% 30.05 0.0
02 11:35 W 14 G 22 10.00 Fair CLR 66.2 35.6 32% 30.06 0.0
02 11:15 W 14 10.00 Fair CLR 66.2 39.2 37% 30.06 0.0
02 10:55 W 16 10.00 Fair CLR 66.2 41 40% 30.06 0.0
02 10:35 W 15 G 21 10.00 Fair CLR 66.2 39.2 37% 30.06 0.0
02 10:15 W 15 10.00 Fair CLR 64.4 42.8 46% 30.07 0.0
02 09:55 W 13 10.00 A Few Clouds FEW100 62.6 41 45% 30.07 0.0
02 09:35 SW 14 10.00 Partly Cloudy SCT100 62.6 41 45% 30.07 0.0
02 09:15 W 9 10.00 A Few Clouds FEW100 59 42.8 55% 30.07 0.0
02 08:55 W 10 10.00 Fair CLR 59 42.8 55% 30.07 0.0
02 08:35 W 12 10.00 A Few Clouds FEW100 59 44.6 59% 30.07 0.0
02 08:15 W 7 10.00 Partly Cloudy SCT100 57.2 50 77% 30.06 0.0
02 07:55 SW 7 10.00 Partly Cloudy SCT100 55.4 51.8 88% 30.05 0.0
02 07:35 Calm 10.00 Fair CLR 51.8 51.8 100% 30.06 0.0
02 07:15 W 5 10.00 Fair CLR 50 50 100% 49 30.05 0.0
02 06:55 W 5 10.00 Fair CLR 46.4 46.4 100% 45 30.04 0.0
02 06:35 Calm 10.00 Fair CLR 44.6 44.6 100% 30.03 0.0
02 06:15 SW 3 10.00 Fair CLR 44.6 44.6 100% 30.02 0.0
02 05:55 Calm 10.00 Fair CLR 42.8 42.8 100% 30.03 0.0
02 05:35 W 3 10.00 Fair CLR 44.6 44.6 100% 30.03 0.0
02 05:15 Calm 10.00 Fair CLR 46.4 46.4 100% 30.03 0.0
02 04:55 Calm 10.00 Fair CLR 46.4 46.4 100% 30.02 0.0
02 04:35 Calm 10.00 Fair CLR 46.4 46.4 100% 30.03 0.0
02 04:15 Calm 10.00 Fair CLR 48.2 48.2 100% 30.02 0.0
02 03:55 Calm 10.00 Fair CLR 48.2 48.2 100% 30.02 0.0
02 03:35 Calm 10.00 Fair CLR 48.2 48.2 100% 30.01 0.0
02 03:15 Calm 10.00 Fair CLR 50 46.4 88% 30.02 0.0
02 02:55 Calm 10.00 Fair CLR 50 46.4 88% 30.02 0.0
02 02:35 Calm 10.00 Fair CLR 48.2 48.2 100% 30.02 0.0
02 02:15 Calm 10.00 Fair CLR 50 46.4 88% 30.03 0.0
02 01:55 Calm 10.00 Fair CLR 51.8 42.8 72% 30.03 0.0
02 01:35 Calm 10.00 Fair CLR 51.8 42.8 72% 30.05 0.0
02 01:15 Calm 10.00 Fair CLR 51.8 44.6 77% 30.05 0.0
02 00:55 Calm 10.00 Fair CLR 51.8 44.6 77% 30.05 0.0
02 00:35 Calm 10.00 Fair CLR 53.6 42.8 67% 30.04 0.0
02 00:15 Calm 10.00 Fair CLR 53.6 41 63% 30.04 0.0
01 23:55 Calm 10.00 Fair CLR 53.6 41 63% 30.03 0.0
01 23:35 Calm 10.00 Fair CLR 55.4 37.4 51% 30.03 0.0
01 23:15 Calm 10.00 Fair CLR 55.4 37.4 51% 30.02 0.0
01 22:55 NE 5 10.00 Fair CLR 55.4 37.4 51% 30.03 0.0
01 22:35 NE 6 10.00 Fair CLR 55.4 37.4 51% 30.04 0.0
01 22:15 NE 6 10.00 Fair CLR 57.2 37.4 48% 30.05 0.0
01 21:55 NE 5 10.00 Fair CLR 57.2 37.4 48% 30.05 0.0
01 21:35 NE 3 10.00 Fair CLR 57.2 37.4 48% 30.05 0.0
01 21:15 E 5 10.00 Fair CLR 59 37.4 45% 30.05 0.0
01 20:55 E 5 10.00 Fair CLR 59 35.6 42% 30.04 0.0
01 20:35 NE 6 10.00 Fair CLR 59 33.8 39% 30.03 0.0
01 20:15 NE 7 10.00 Fair CLR 60.8 33.8 36% 30.02 0.0
01 19:55 NE 6 10.00 Fair CLR 60.8 33.8 36% 30.01 0.0
01 19:35 NE 8 10.00 Fair CLR 60.8 32 34% 30 0.0
01 19:15 NE 10 10.00 Fair CLR 62.6 32 32% 29.99 0.0
01 18:55 NE 8 G 15 10.00 Fair CLR 62.6 32 32% 29.98 0.0
01 18:35 NE 7 10.00 Fair CLR 62.6 33.8 34% 29.98 0.0
01 18:15 N 10 10.00 Fair CLR 64.4 32 30% 29.99 0.0
01 17:55 N 10 G 16 10.00 Fair CLR 66.2 32 28% 29.98 0.0
01 17:35 NE 10 G 16 10.00 Fair CLR 64.4 32 30% 29.97 0.0
01 17:15 NE 13 10.00 Fair CLR 66.2 32 28% 29.97 0.0
01 16:55 N 10 G 21 10.00 Fair CLR 66.2 32 28% 29.96 0.0
01 16:35 N 13 10.00 Fair CLR 66.2 32 28% 29.96 0.0
01 16:15 N 14 10.00 Fair CLR 66.2 32 28% 29.97 0.0
01 15:55 N 10 G 23 10.00 Fair CLR 68 30.2 24% 29.98 0.0
01 15:35 NE 14 10.00 Fair CLR 66.2 32 28% 29.99 0.0
01 15:15 NE 14 G 23 10.00 Fair CLR 66.2 32 28% 30.01 0.0
01 14:55 N 14 10.00 Fair CLR 66.2 32 28% 30.02 0.0
01 14:35 N 10 G 17 10.00 Fair CLR 66.2 32 28% 30.03 0.0
01 14:15 NE 9 G 18 10.00 Fair CLR 66.2 32 28% 30.04 0.0
01 13:55 N 9 G 21 10.00 Fair CLR 64.4 30.2 28% 30.05 0.0
01 13:35 N 10 G 17 10.00 Fair CLR 64.4 33.8 32% 30.06 0.0
01 12:55 N 9 G 23 10.00 Fair CLR 64.4 33.8 32% 30.06 0.0
01 12:35 N 15 10.00 Fair CLR 64.4 33.8 32% 30.06 0.0
01 12:15 NE 14 G 22 10.00 Fair CLR 62.6 32 32% 30.06 0.0
01 11:55 NE 14 G 24 10.00 Fair CLR 62.6 32 32% 30.06 0.0
01 11:35 N 14 G 22 10.00 Fair CLR 62.6 32 32% 30.06 0.0
01 11:15 N 16 G 22 10.00 Fair CLR 62.6 35.6 37% 30.07 0.0
01 10:55 NE 15 G 23 10.00 Fair CLR 62.6 33.8 34% 30.07 0.0
01 10:35 N 16 10.00 Fair CLR 62.6 33.8 34% 30.08 0.0
01 10:15 NE 12 G 21 10.00 Fair CLR 60.8 35.6 39% 30.08 0.0
01 09:55 NE 15 G 23 10.00 Fair CLR 60.8 33.8 36% 30.07 0.0
01 09:35 N 13 G 23 10.00 Fair CLR 60.8 37.4 42% 30.07 0.0
01 09:15 NE 13 G 21 10.00 Fair CLR 59 37.4 45% 30.06 0.0
01 08:55 N 15 G 21 10.00 Fair CLR 59 42.8 55% 30.05 0.0
01 08:35 N 13 G 21 10.00 Fair CLR 57.2 48.2 72% 30.05 0.0
Date Time (cdt) Wind (mph) Vis. (mi.) Weather Sky Cond. Air Dwpt Max. Min. Relative Humidity Wind Chill (°F) Heat Index (°F) altimeter (in) sea level (mb) 1 hr 3 hr 6 hr
6 hour
Temperature (ºF) Pressure Precipitation (in)